createdAt,value
2023-01-29T00:00:20.013Z,101843.31
2023-01-29T00:02:50.074Z,101846.06
2023-01-29T00:05:27.948Z,101848.91
2023-01-29T00:07:58.441Z,101840.44
2023-01-29T00:10:27.551Z,101830.38
2023-01-29T00:12:56.439Z,101850.19
2023-01-29T00:15:25.030Z,101844.25
2023-01-29T00:17:55.027Z,101846.88
2023-01-29T00:20:23.571Z,101850.59
2023-01-29T00:22:52.110Z,101843.75
2023-01-29T00:25:20.685Z,101843.72
2023-01-29T00:27:49.265Z,101845.47
2023-01-29T00:30:20.112Z,101843.88
2023-01-29T00:32:49.049Z,101849.22
2023-01-29T00:35:19.128Z,101844.19
2023-01-29T00:37:47.935Z,101854.69
2023-01-29T00:40:16.811Z,101858.91
2023-01-29T00:43:03.700Z,101855.22
2023-01-29T00:45:32.267Z,101849.16
2023-01-29T00:48:01.015Z,101846.47
2023-01-29T00:50:31.476Z,101842.00
2023-01-29T00:53:00.012Z,101843.69
2023-01-29T00:55:28.666Z,101837.44
2023-01-29T00:57:57.218Z,101832.94
2023-01-29T01:00:26.182Z,101836.50
2023-01-29T01:03:08.999Z,101835.75
2023-01-29T01:05:39.336Z,101835.94
2023-01-29T01:08:28.956Z,101833.50
2023-01-29T01:11:04.108Z,101841.56
2023-01-29T01:13:33.707Z,101839.22
2023-01-29T01:16:02.647Z,101837.44
2023-01-29T01:18:31.794Z,101819.38
2023-01-29T01:21:01.888Z,101838.50
2023-01-29T01:23:30.411Z,101840.41
2023-01-29T01:25:59.292Z,101839.63
2023-01-29T01:28:28.156Z,101843.13
2023-01-29T01:30:56.867Z,101850.84
2023-01-29T01:33:25.457Z,101850.28
2023-01-29T01:35:54.031Z,101848.91
2023-01-29T01:38:24.364Z,101855.00
2023-01-29T01:40:52.864Z,101853.31
2023-01-29T01:43:22.875Z,101855.97
2023-01-29T01:45:51.429Z,101862.09
2023-01-29T01:48:23.260Z,101827.59
2023-01-29T01:50:54.763Z,101869.66
2023-01-29T01:53:30.929Z,101878.38
2023-01-29T01:56:05.052Z,101876.66
2023-01-29T01:58:37.800Z,101876.75
2023-01-29T02:01:09.004Z,101870.06
2023-01-29T02:04:01.930Z,101872.81
2023-01-29T02:06:49.253Z,101873.56
2023-01-29T02:09:33.691Z,101876.22
2023-01-29T02:12:02.849Z,101875.47
2023-01-29T02:14:34.619Z,101876.41
2023-01-29T02:17:03.664Z,101872.97
2023-01-29T02:19:42.994Z,101881.56
2023-01-29T02:22:39.979Z,101878.81
2023-01-29T02:25:35.640Z,101883.28
2023-01-29T02:28:22.154Z,101881.81
2023-01-29T02:31:00.371Z,101875.06
2023-01-29T02:33:38.284Z,101883.00
2023-01-29T02:36:18.096Z,101888.31
2023-01-29T02:38:56.217Z,101881.28
2023-01-29T02:41:30.340Z,101877.81
2023-01-29T02:44:08.071Z,101885.75
2023-01-29T02:46:42.602Z,101884.81
2023-01-29T02:49:19.172Z,101872.72
2023-01-29T02:51:55.166Z,101875.25
2023-01-29T02:54:27.484Z,101877.84
2023-01-29T02:57:00.133Z,101841.72
2023-01-29T02:59:36.898Z,101772.38
2023-01-29T03:02:11.235Z,101889.69
2023-01-29T03:04:46.746Z,101894.78
2023-01-29T03:07:39.729Z,101873.38
2023-01-29T03:10:16.092Z,101897.44
2023-01-29T03:12:48.883Z,101900.97
2023-01-29T03:15:25.350Z,101859.63
2023-01-29T03:18:21.682Z,101896.00
2023-01-29T03:20:54.828Z,101905.75
2023-01-29T03:23:42.689Z,101907.47
2023-01-29T03:26:30.519Z,101918.78
2023-01-29T03:29:18.901Z,101916.06
2023-01-29T03:32:05.591Z,101922.00
2023-01-29T03:34:39.811Z,101911.44
2023-01-29T03:37:15.375Z,101922.69
2023-01-29T03:39:44.155Z,101914.00
2023-01-29T03:42:23.297Z,101916.53
2023-01-29T03:45:00.580Z,101919.13
2023-01-29T03:47:45.142Z,101917.47
2023-01-29T03:50:31.221Z,101924.47
2023-01-29T03:53:08.550Z,101919.38
2023-01-29T03:55:41.994Z,101921.13
2023-01-29T03:58:22.421Z,101914.28
2023-01-29T04:00:57.097Z,101916.94
2023-01-29T04:03:34.296Z,101924.81
2023-01-29T04:06:11.015Z,101920.66
2023-01-29T04:09:04.337Z,101907.06
2023-01-29T04:11:36.735Z,101926.06
2023-01-29T04:14:05.609Z,101923.44
2023-01-29T04:16:38.153Z,101915.69
2023-01-29T04:19:37.469Z,101916.75
2023-01-29T04:22:12.771Z,101919.34
2023-01-29T04:24:42.873Z,101784.06
2023-01-29T04:27:28.358Z,101926.28
2023-01-29T04:30:21.160Z,101922.03
2023-01-29T04:33:01.607Z,101932.66
2023-01-29T04:35:38.339Z,101937.00
2023-01-29T04:38:13.934Z,101936.22
2023-01-29T04:40:52.431Z,101938.94
2023-01-29T04:43:29.963Z,101936.38
2023-01-29T04:46:12.154Z,101938.03
2023-01-29T04:48:52.747Z,101932.16
2023-01-29T04:51:27.154Z,101933.84
2023-01-29T04:54:03.900Z,101932.16
2023-01-29T04:56:40.713Z,101939.13
2023-01-29T04:59:14.411Z,101926.16
2023-01-29T05:01:54.604Z,101936.59
2023-01-29T05:04:28.824Z,101936.66
2023-01-29T05:06:59.927Z,101949.91
2023-01-29T05:09:28.714Z,101956.81
2023-01-29T05:11:58.033Z,101953.22
2023-01-29T05:14:30.688Z,101944.50
2023-01-29T05:17:03.553Z,101943.63
2023-01-29T05:19:32.190Z,101948.00
2023-01-29T05:22:02.258Z,101952.38
2023-01-29T05:24:30.835Z,101949.81
2023-01-29T05:27:16.865Z,101961.22
2023-01-29T05:29:48.244Z,101962.34
2023-01-29T05:32:17.340Z,101970.28
2023-01-29T05:34:45.692Z,101978.13
2023-01-29T05:37:15.757Z,101978.06
2023-01-29T05:39:44.236Z,101980.66
2023-01-29T05:42:12.787Z,101987.53
2023-01-29T05:44:41.346Z,101989.97
2023-01-29T05:47:09.922Z,101992.59
2023-01-29T05:49:38.844Z,102000.53
2023-01-29T05:52:07.369Z,101993.63
2023-01-29T05:54:37.320Z,102003.25
2023-01-29T05:57:05.991Z,102005.94
2023-01-29T05:59:34.508Z,102005.94
2023-01-29T06:02:02.967Z,102005.97
2023-01-29T06:04:31.510Z,102003.38
2023-01-29T06:07:01.328Z,102010.38
2023-01-29T06:09:29.778Z,102000.75
2023-01-29T06:11:59.707Z,102010.38
2023-01-29T06:14:28.192Z,102003.63
2023-01-29T06:16:56.823Z,102008.97
2023-01-29T06:19:25.381Z,102013.47
2023-01-29T06:21:53.800Z,102021.28
2023-01-29T06:24:22.390Z,102026.44
2023-01-29T06:26:50.937Z,102032.56
2023-01-29T06:29:21.224Z,102030.75
2023-01-29T06:31:49.881Z,102036.81
2023-01-29T06:34:19.420Z,102031.56
2023-01-29T06:36:48.088Z,102044.56
2023-01-29T06:39:16.796Z,102043.56
2023-01-29T06:41:46.715Z,102032.13
2023-01-29T06:44:15.337Z,102052.16
2023-01-29T06:46:45.301Z,102040.97
2023-01-29T06:49:13.883Z,102046.25
2023-01-29T06:51:42.440Z,102056.78
2023-01-29T06:54:11.206Z,102052.47
2023-01-29T06:56:39.732Z,102056.00
2023-01-29T06:59:08.176Z,102055.09
2023-01-29T07:01:36.885Z,102059.41
2023-01-29T07:04:07.130Z,102057.63
2023-01-29T07:06:36.411Z,102056.81
2023-01-29T07:09:05.280Z,102057.66
2023-01-29T07:11:35.663Z,102068.91
2023-01-29T07:14:04.081Z,102076.66
2023-01-29T07:16:32.762Z,102083.63
2023-01-29T07:19:01.383Z,102084.50
2023-01-29T07:21:31.315Z,102084.47
2023-01-29T07:23:59.948Z,102080.13
2023-01-29T07:26:28.514Z,102077.44
2023-01-29T07:28:56.986Z,102082.63
2023-01-29T07:31:25.587Z,102088.13
2023-01-29T07:33:54.110Z,102083.41
2023-01-29T07:36:22.557Z,102098.53
2023-01-29T07:38:52.859Z,102097.69
2023-01-29T07:41:21.514Z,102104.47
2023-01-29T07:43:50.238Z,102114.66
2023-01-29T07:46:18.819Z,102111.78
2023-01-29T07:48:47.413Z,102116.88
2023-01-29T07:51:17.275Z,102122.72
2023-01-29T07:53:45.713Z,102114.44
2023-01-29T07:56:15.679Z,102122.84
2023-01-29T07:58:44.144Z,102134.81
2023-01-29T08:01:12.677Z,102140.78
2023-01-29T08:03:41.436Z,102140.72
2023-01-29T08:06:10.045Z,102137.03
2023-01-29T08:08:38.582Z,102150.63
2023-01-29T08:11:07.461Z,102143.69
2023-01-29T08:13:37.437Z,102149.69
2023-01-29T08:16:06.942Z,102144.22
2023-01-29T08:18:35.609Z,102142.03
2023-01-29T08:21:04.398Z,102165.50
2023-01-29T08:23:32.940Z,102167.00
2023-01-29T08:26:03.385Z,102167.84
2023-01-29T08:28:31.935Z,102179.00
2023-01-29T08:31:02.090Z,102178.66
2023-01-29T08:33:38.711Z,102186.97
2023-01-29T08:36:09.334Z,102181.63
2023-01-29T08:38:37.809Z,102173.16
2023-01-29T08:41:06.763Z,102170.66
2023-01-29T08:43:37.234Z,102170.53
2023-01-29T08:46:08.025Z,102172.00
2023-01-29T08:48:36.699Z,102160.28
2023-01-29T08:51:05.695Z,102158.91
2023-01-29T08:53:34.641Z,102160.47
2023-01-29T08:56:03.284Z,102171.88
2023-01-29T08:58:31.868Z,102179.72
2023-01-29T09:01:09.200Z,102173.03
2023-01-29T09:03:41.054Z,102165.38
2023-01-29T09:06:11.044Z,102170.34
2023-01-29T09:08:39.903Z,102173.78
2023-01-29T09:11:09.234Z,102172.91
2023-01-29T09:13:37.925Z,102176.06
2023-01-29T09:16:08.663Z,102181.44
2023-01-29T09:18:37.161Z,102176.50
2023-01-29T09:21:06.169Z,102178.22
2023-01-29T09:23:35.168Z,102183.94
2023-01-29T09:26:03.677Z,102189.69
2023-01-29T09:28:32.210Z,102183.09
2023-01-29T09:31:02.997Z,102185.59
2023-01-29T09:33:33.734Z,102187.31
2023-01-29T09:36:04.496Z,102184.59
2023-01-29T09:38:33.033Z,102190.81
2023-01-29T09:41:10.299Z,102178.34
2023-01-29T09:43:46.593Z,102187.66
2023-01-29T09:46:22.069Z,102180.44
2023-01-29T09:48:59.151Z,102167.75
2023-01-29T09:51:35.602Z,102179.38
2023-01-29T09:54:16.189Z,102181.94
2023-01-29T09:56:47.084Z,102180.78
2023-01-29T09:59:19.792Z,102185.94
2023-01-29T10:02:01.136Z,102186.56
2023-01-29T10:05:10.230Z,102185.50
2023-01-29T10:08:02.808Z,102189.16
2023-01-29T10:10:44.500Z,102186.19
2023-01-29T10:13:21.563Z,102184.94
2023-01-29T10:16:12.845Z,102177.69
2023-01-29T10:19:02.844Z,102180.25
2023-01-29T10:21:51.642Z,102175.59
2023-01-29T10:24:32.577Z,102178.75
2023-01-29T10:27:02.449Z,102175.94
2023-01-29T10:29:33.253Z,102179.22
2023-01-29T10:32:06.093Z,102164.97
2023-01-29T10:34:42.605Z,102158.47
2023-01-29T10:37:19.573Z,102161.91
2023-01-29T10:39:48.211Z,102155.88
2023-01-29T10:42:35.466Z,102149.28
2023-01-29T10:45:19.179Z,102148.88
2023-01-29T10:48:22.343Z,102149.59
2023-01-29T10:50:57.728Z,102151.91
2023-01-29T10:53:49.081Z,102138.78
2023-01-29T10:56:35.086Z,102139.09
2023-01-29T10:59:10.702Z,102136.63
2023-01-29T11:01:39.414Z,102124.84
2023-01-29T11:04:08.195Z,102121.16
2023-01-29T11:06:38.261Z,102127.75
2023-01-29T11:09:20.852Z,102130.06
2023-01-29T11:11:53.811Z,102132.25
2023-01-29T11:14:26.097Z,102122.84
2023-01-29T11:16:54.800Z,102113.56
2023-01-29T11:19:41.543Z,102119.91
2023-01-29T11:22:15.216Z,102122.16
2023-01-29T11:24:45.842Z,102111.13
2023-01-29T11:27:26.189Z,102106.94
2023-01-29T11:29:55.279Z,102095.97
2023-01-29T11:32:29.832Z,102098.16
2023-01-29T11:35:00.808Z,102092.97
2023-01-29T11:37:39.779Z,102083.03
2023-01-29T11:40:39.262Z,102075.31
2023-01-29T11:43:29.530Z,102077.41
2023-01-29T11:46:01.902Z,102074.88
2023-01-29T11:48:41.952Z,102077.91
2023-01-29T11:51:13.875Z,102068.56
2023-01-29T11:53:45.080Z,102069.25
2023-01-29T11:56:28.477Z,102070.59
2023-01-29T11:58:59.103Z,102036.84
2023-01-29T12:01:33.698Z,102061.47
2023-01-29T12:04:02.955Z,102058.69
2023-01-29T12:06:36.608Z,102058.50
2023-01-29T12:09:15.457Z,102057.19
2023-01-29T12:11:45.965Z,102056.00
2023-01-29T12:14:33.708Z,101872.44
2023-01-29T12:17:08.980Z,102052.88
2023-01-29T12:19:43.033Z,102041.53
2023-01-29T12:22:18.769Z,102040.44
2023-01-29T12:24:54.303Z,102029.88
2023-01-29T12:27:28.258Z,102023.88
2023-01-29T12:30:03.719Z,102023.41
2023-01-29T12:32:41.101Z,102015.63
2023-01-29T12:35:16.478Z,102009.63
2023-01-29T12:37:55.469Z,101989.41
2023-01-29T12:40:29.972Z,102009.91
2023-01-29T12:43:05.993Z,102011.00
2023-01-29T12:45:38.060Z,102000.06
2023-01-29T12:48:09.917Z,102000.53
2023-01-29T12:50:39.865Z,101997.31
2023-01-29T12:53:22.180Z,101997.88
2023-01-29T12:55:55.691Z,102005.75
2023-01-29T12:58:30.912Z,101998.63
2023-01-29T13:01:07.812Z,102004.69
2023-01-29T13:03:46.917Z,102006.41
2023-01-29T13:06:19.691Z,101991.50
2023-01-29T13:08:54.022Z,101991.38
2023-01-29T13:11:27.530Z,101984.91
2023-01-29T13:14:02.570Z,101986.44
2023-01-29T13:16:37.661Z,101976.53
2023-01-29T13:19:16.288Z,101979.66
2023-01-29T13:21:46.537Z,101975.09
2023-01-29T13:24:20.292Z,101975.84
2023-01-29T13:26:50.108Z,101964.06
2023-01-29T13:29:25.559Z,101976.97
2023-01-29T13:31:55.677Z,101972.38
2023-01-29T13:34:26.264Z,101980.66
2023-01-29T13:36:58.613Z,101980.38
2023-01-29T13:39:31.098Z,101978.44
2023-01-29T13:42:01.418Z,101971.38
2023-01-29T13:44:35.035Z,101974.34
2023-01-29T13:47:09.091Z,101970.25
2023-01-29T13:49:41.990Z,101969.31
2023-01-29T13:52:22.680Z,101963.03
2023-01-29T13:54:55.327Z,101964.09
2023-01-29T13:57:49.964Z,101964.28
2023-01-29T14:01:01.749Z,101964.47
2023-01-29T14:04:08.396Z,101959.75
2023-01-29T14:06:51.146Z,101954.31
2023-01-29T14:09:34.464Z,101956.75
2023-01-29T14:12:03.392Z,101954.75
2023-01-29T14:15:04.426Z,101954.28
2023-01-29T14:17:40.323Z,101956.00
2023-01-29T14:20:45.131Z,101956.19
2023-01-29T14:23:51.569Z,101949.16
2023-01-29T14:26:43.068Z,101954.28
2023-01-29T14:29:34.721Z,101952.56
2023-01-29T14:32:20.639Z,101950.78
2023-01-29T14:34:52.210Z,101960.47
2023-01-29T14:37:44.386Z,101951.63
2023-01-29T14:40:32.008Z,101954.47
2023-01-29T14:43:20.311Z,101946.69
2023-01-29T14:45:54.554Z,101943.25
2023-01-29T14:48:58.690Z,101947.44
2023-01-29T14:51:37.830Z,101904.91
2023-01-29T14:54:20.553Z,101944.97
2023-01-29T14:56:58.879Z,101949.97
2023-01-29T14:59:33.616Z,101949.09
2023-01-29T15:02:06.745Z,101944.53
2023-01-29T15:04:42.114Z,101951.34
2023-01-29T15:07:24.850Z,101948.69
2023-01-29T15:10:13.538Z,101952.44
2023-01-29T15:12:53.476Z,101942.72
2023-01-29T15:15:31.980Z,101820.31
2023-01-29T15:18:06.892Z,101945.25
2023-01-29T15:20:37.510Z,101951.00
2023-01-29T15:23:24.942Z,101951.09
2023-01-29T15:25:58.647Z,101953.84
2023-01-29T15:28:32.213Z,101958.31
2023-01-29T15:31:03.238Z,101960.13
2023-01-29T15:33:34.736Z,101962.69
2023-01-29T15:36:07.901Z,101956.44
2023-01-29T15:38:37.492Z,101953.19
2023-01-29T15:41:19.752Z,101956.72
2023-01-29T15:43:50.675Z,101961.00
2023-01-29T15:46:26.384Z,101961.00
2023-01-29T15:48:56.927Z,101954.91
2023-01-29T15:51:27.752Z,101957.56
2023-01-29T15:53:59.178Z,101967.44
2023-01-29T15:56:32.602Z,101963.25
2023-01-29T15:59:09.259Z,101958.22
2023-01-29T16:01:38.506Z,101961.41
2023-01-29T16:04:07.501Z,101960.72
2023-01-29T16:06:39.288Z,101967.75
2023-01-29T16:09:09.508Z,101962.72
2023-01-29T16:11:40.492Z,101961.28
2023-01-29T16:14:09.679Z,101966.84
2023-01-29T16:16:38.958Z,101968.28
2023-01-29T16:19:15.632Z,101966.78
2023-01-29T16:21:46.220Z,101971.59
2023-01-29T16:24:22.942Z,101968.00
2023-01-29T16:26:57.907Z,101977.97
2023-01-29T16:29:33.015Z,101982.50
2023-01-29T16:32:03.224Z,101975.94
2023-01-29T16:34:35.701Z,101982.84
2023-01-29T16:37:08.018Z,101990.88
2023-01-29T16:39:40.916Z,101993.84
2023-01-29T16:42:26.919Z,101999.00
2023-01-29T16:45:01.212Z,102001.00
2023-01-29T16:47:32.749Z,102005.69
2023-01-29T16:50:03.470Z,101980.63
2023-01-29T16:52:33.290Z,102007.31
2023-01-29T16:55:17.100Z,102013.16
2023-01-29T16:57:52.908Z,102010.25
2023-01-29T17:00:25.005Z,102013.38
2023-01-29T17:02:56.260Z,102024.38
2023-01-29T17:05:29.351Z,102019.38
2023-01-29T17:07:59.633Z,102008.75
2023-01-29T17:10:30.422Z,102026.13
2023-01-29T17:13:04.115Z,102028.84
2023-01-29T17:15:36.141Z,102028.25
2023-01-29T17:18:05.646Z,101999.78
2023-01-29T17:20:34.414Z,102032.38
2023-01-29T17:23:03.089Z,102035.72
2023-01-29T17:25:31.660Z,102031.69
2023-01-29T17:28:04.138Z,102038.19
2023-01-29T17:30:35.370Z,102048.22
2023-01-29T17:33:12.506Z,102038.34
2023-01-29T17:35:42.397Z,102040.28
2023-01-29T17:38:24.339Z,102055.66
2023-01-29T17:40:57.860Z,102062.72
2023-01-29T17:43:27.988Z,102056.00
2023-01-29T17:45:56.949Z,102058.38
2023-01-29T17:48:26.755Z,102035.84
2023-01-29T17:50:57.168Z,102054.59
2023-01-29T17:53:30.487Z,102059.63
2023-01-29T17:56:05.459Z,102063.31
2023-01-29T17:58:35.494Z,102068.97
2023-01-29T18:01:05.378Z,102062.28
2023-01-29T18:03:36.815Z,102071.31
2023-01-29T18:06:08.754Z,102050.06
2023-01-29T18:08:39.666Z,102075.44
2023-01-29T18:11:08.257Z,102081.09
2023-01-29T18:13:38.254Z,102084.28
2023-01-29T18:16:07.367Z,102075.34
2023-01-29T18:18:35.895Z,102090.41
2023-01-29T18:21:04.841Z,102095.50
2023-01-29T18:23:33.517Z,102095.06
2023-01-29T18:26:02.090Z,102106.06
2023-01-29T18:28:31.607Z,102109.22
2023-01-29T18:31:03.071Z,102113.91
2023-01-29T18:33:31.803Z,102121.81
2023-01-29T18:36:00.731Z,102110.66
2023-01-29T18:38:29.605Z,102114.81
2023-01-29T18:41:04.842Z,102096.91
2023-01-29T18:43:33.515Z,102119.38
2023-01-29T18:46:03.432Z,102122.22
2023-01-29T18:48:32.357Z,102128.56
2023-01-29T18:51:01.234Z,102125.84
2023-01-29T18:53:29.865Z,102126.84
2023-01-29T18:55:59.869Z,102128.72
2023-01-29T18:58:36.310Z,102128.13
2023-01-29T19:01:10.161Z,102121.81
2023-01-29T19:03:39.327Z,102130.22
2023-01-29T19:06:14.008Z,102094.38
2023-01-29T19:08:49.517Z,102132.34
2023-01-29T19:11:18.539Z,102136.94
2023-01-29T19:13:48.186Z,102124.22
2023-01-29T19:16:18.603Z,102126.91
2023-01-29T19:18:47.104Z,102124.38
2023-01-29T19:21:19.172Z,102121.78
2023-01-29T19:23:49.490Z,102118.19
2023-01-29T19:26:18.292Z,102124.38
2023-01-29T19:28:46.847Z,102120.94
2023-01-29T19:31:15.470Z,102125.56
2023-01-29T19:33:45.392Z,102125.00
2023-01-29T19:36:13.990Z,102124.22
2023-01-29T19:38:43.322Z,102125.19
2023-01-29T19:41:11.941Z,102125.22
2023-01-29T19:43:42.111Z,102134.94
2023-01-29T19:46:11.794Z,102138.47
2023-01-29T19:48:40.547Z,102135.00
2023-01-29T19:51:28.237Z,102132.28
2023-01-29T19:54:02.441Z,102134.16
2023-01-29T19:56:31.039Z,102137.00
2023-01-29T19:58:59.564Z,102139.53
2023-01-29T20:01:34.130Z,102129.19
2023-01-29T20:04:02.876Z,102140.63
2023-01-29T20:06:32.792Z,102140.66
2023-01-29T20:09:03.160Z,102143.38
2023-01-29T20:11:32.694Z,102146.03
2023-01-29T20:14:02.212Z,102143.38
2023-01-29T20:16:31.334Z,102154.84
2023-01-29T20:19:13.307Z,102153.97
2023-01-29T20:21:49.007Z,102154.06
2023-01-29T20:24:18.233Z,102158.41
2023-01-29T20:26:47.367Z,102141.00
2023-01-29T20:29:16.017Z,102153.38
2023-01-29T20:31:44.532Z,102149.13
2023-01-29T20:34:13.082Z,102158.00
2023-01-29T20:36:41.656Z,102150.94
2023-01-29T20:39:11.641Z,102158.00
2023-01-29T20:41:41.812Z,102165.09
2023-01-29T20:44:10.378Z,102171.34
2023-01-29T20:46:39.523Z,102170.59
2023-01-29T20:49:09.213Z,102169.69
2023-01-29T20:51:37.975Z,102188.09
2023-01-29T20:54:06.589Z,102181.22
2023-01-29T20:56:42.243Z,102178.66
2023-01-29T20:59:12.155Z,102183.19
2023-01-29T21:01:40.600Z,102185.00
2023-01-29T21:04:09.164Z,102189.38
2023-01-29T21:06:37.824Z,102194.56
2023-01-29T21:09:06.605Z,102199.75
2023-01-29T21:11:36.535Z,102196.22
2023-01-29T21:14:05.223Z,102197.19
2023-01-29T21:16:33.835Z,102198.97
2023-01-29T21:19:02.451Z,102193.84
2023-01-29T21:21:31.062Z,102197.53
2023-01-29T21:23:59.541Z,102200.16
2023-01-29T21:26:28.135Z,102201.97
2023-01-29T21:28:58.142Z,102213.38
2023-01-29T21:31:26.678Z,102206.47
2023-01-29T21:33:55.143Z,102211.75
2023-01-29T21:36:23.639Z,102198.59
2023-01-29T21:38:52.198Z,102206.41
2023-01-29T21:41:40.700Z,102197.78
2023-01-29T21:44:09.898Z,102206.63
2023-01-29T21:46:38.417Z,102204.94
2023-01-29T21:49:07.255Z,102203.19
2023-01-29T21:51:37.242Z,102198.09
2023-01-29T21:54:06.149Z,102193.06
2023-01-29T21:56:35.795Z,102198.22
2023-01-29T21:59:04.550Z,102206.16
2023-01-29T22:01:37.803Z,102200.84
2023-01-29T22:04:08.317Z,102201.66
2023-01-29T22:06:36.807Z,102200.84
2023-01-29T22:09:05.564Z,102202.44
2023-01-29T22:11:34.279Z,102208.78
2023-01-29T22:14:02.775Z,102211.44
2023-01-29T22:16:31.344Z,102207.19
2023-01-29T22:19:01.489Z,102200.97
2023-01-29T22:21:36.017Z,102206.19
2023-01-29T22:24:05.256Z,102195.75
2023-01-29T22:26:33.850Z,102198.34
2023-01-29T22:29:02.467Z,102200.97
2023-01-29T22:31:30.991Z,102197.47
2023-01-29T22:34:00.858Z,102194.72
2023-01-29T22:36:29.391Z,102202.63
2023-01-29T22:38:57.968Z,102196.53
2023-01-29T22:41:26.661Z,102194.78
2023-01-29T22:43:55.176Z,102199.34
2023-01-29T22:46:23.791Z,102196.72
2023-01-29T22:48:52.379Z,102188.78
2023-01-29T22:51:22.547Z,102199.97
2023-01-29T22:53:52.627Z,102197.38
2023-01-29T22:56:22.003Z,102194.00
2023-01-29T22:58:52.306Z,102174.97
2023-01-29T23:01:30.270Z,102176.31
2023-01-29T23:04:04.857Z,102194.22
2023-01-29T23:06:34.893Z,102195.53
2023-01-29T23:09:03.379Z,102195.81
2023-01-29T23:11:31.867Z,102182.84
2023-01-29T23:14:00.440Z,102194.16
2023-01-29T23:16:34.314Z,102171.63
2023-01-29T23:19:06.966Z,102183.81
2023-01-29T23:21:40.033Z,102182.28
2023-01-29T23:24:12.261Z,102178.06
2023-01-29T23:27:00.882Z,102178.13
2023-01-29T23:29:31.855Z,102187.84
2023-01-29T23:32:00.935Z,102186.97
2023-01-29T23:34:29.477Z,102179.13
2023-01-29T23:36:59.866Z,102160.16
2023-01-29T23:39:28.339Z,102173.00
2023-01-29T23:41:56.901Z,102178.31
2023-01-29T23:44:25.673Z,102177.44
2023-01-29T23:46:54.315Z,102166.13
2023-01-29T23:49:23.244Z,102166.28
2023-01-29T23:51:52.446Z,102167.97
2023-01-29T23:54:23.104Z,102170.66
2023-01-29T23:56:51.740Z,102163.03
2023-01-29T23:59:20.694Z,102165.75
